THY8RW LTCM-LTFM
Flight info
| Callsign | THY8RW |
|---|---|
| Flight time | 0h 55m |
| Altitude | 36000 |
| Route | SUNUM1T/23 SUNUM W90 INB UL746 ADUMU UT310 NUGBA |
| Aircraft | A319/M-SDE3FGHIRWY/LB1 |
Departure
| Time | 2026-04-25 20:51 |
|---|---|
| Airport | Sinop Airport (LTCM) |
Arrival
| Time | 2026-04-25 21:47 |
|---|---|
| Airport | İstanbul Airport (LTFM) |
| Time | Latitude | Longitude | Altitude | Speed | Heading |
|---|---|---|---|---|---|
| 2026-04-25 20:19 | 42.01938 | 35.07891 | 40 ft | 0 kts | 142° |
| 2026-04-25 20:42 | 42.01949 | 35.07880 | 39 ft | 3 kts | 148° |
| 2026-04-25 20:42 | 42.01961 | 35.07873 | 39 ft | 3 kts | 168° |
| 2026-04-25 20:42 | 42.01979 | 35.07872 | 39 ft | 3 kts | 206° |
| 2026-04-25 20:43 | 42.01994 | 35.07887 | 39 ft | 0 kts | 239° |
| 2026-04-25 20:47 | 42.01992 | 35.07884 | 39 ft | 1 kts | 239° |
| 2026-04-25 20:47 | 42.01986 | 35.07868 | 39 ft | 3 kts | 243° |
| 2026-04-25 20:47 | 42.01980 | 35.07836 | 39 ft | 4 kts | 270° |
| 2026-04-25 20:47 | 42.02000 | 35.07795 | 39 ft | 6 kts | 320° |
| 2026-04-25 20:48 | 42.02039 | 35.07757 | 38 ft | 7 kts | 324° |
| 2026-04-25 20:48 | 42.02083 | 35.07714 | 40 ft | 8 kts | 325° |
| 2026-04-25 20:48 | 42.02131 | 35.07719 | 41 ft | 8 kts | 43° |
| 2026-04-25 20:48 | 42.02169 | 35.07787 | 40 ft | 10 kts | 53° |
| 2026-04-25 20:49 | 42.02216 | 35.07873 | 39 ft | 13 kts | 53° |
| 2026-04-25 20:49 | 42.02274 | 35.07978 | 38 ft | 15 kts | 54° |
| 2026-04-25 20:49 | 42.02335 | 35.08062 | 40 ft | 11 kts | 28° |
| 2026-04-25 20:49 | 42.02394 | 35.08104 | 39 ft | 9 kts | 52° |
| 2026-04-25 20:50 | 42.02362 | 35.08134 | 37 ft | 9 kts | 224° |
| 2026-04-25 20:50 | 42.02344 | 35.08106 | 39 ft | 0 kts | 234° |
| 2026-04-25 20:50 | 42.02343 | 35.08105 | 39 ft | 0 kts | 234° |
| 2026-04-25 20:50 | 42.02343 | 35.08103 | 39 ft | 5 kts | 235° |
| 2026-04-25 20:51 | 42.02146 | 35.07747 | 41 ft | 87 kts | 232° |
| 2026-04-25 20:51 | 42.01700 | 35.06930 | 43 ft | 147 kts | 233° |
| 2026-04-25 20:51 | 42.01077 | 35.05803 | 647 ft | 148 kts | 228° |
| 2026-04-25 20:51 | 42.00438 | 35.04737 | 1308 ft | 147 kts | 227° |
| 2026-04-25 20:52 | 41.99749 | 35.03628 | 1654 ft | 164 kts | 227° |
| 2026-04-25 20:52 | 41.99247 | 35.02819 | 1827 ft | 178 kts | 226° |
| 2026-04-25 20:52 | 41.98628 | 35.00564 | 2126 ft | 221 kts | 275° |
| 2026-04-25 20:52 | 41.99166 | 34.98498 | 2494 ft | 248 kts | 292° |
| 2026-04-25 20:53 | 41.99860 | 34.96251 | 3049 ft | 271 kts | 288° |
| 2026-04-25 20:53 | 42.00349 | 34.93760 | 3901 ft | 280 kts | 280° |
| 2026-04-25 20:53 | 42.00686 | 34.91175 | 4971 ft | 280 kts | 277° |
| 2026-04-25 20:53 | 42.00960 | 34.88666 | 6002 ft | 280 kts | 276° |
| 2026-04-25 20:54 | 42.01200 | 34.86150 | 7021 ft | 279 kts | 272° |
| 2026-04-25 20:54 | 42.01130 | 34.83607 | 7970 ft | 281 kts | 263° |
| 2026-04-25 20:54 | 42.00974 | 34.81074 | 8902 ft | 282 kts | 265° |
| 2026-04-25 20:54 | 42.00831 | 34.78383 | 9829 ft | 284 kts | 265° |
| 2026-04-25 20:55 | 42.00700 | 34.75691 | 10450 ft | 298 kts | 265° |
| 2026-04-25 20:55 | 42.00563 | 34.72806 | 10856 ft | 316 kts | 265° |
| 2026-04-25 20:55 | 42.00425 | 34.69866 | 11564 ft | 321 kts | 266° |
| 2026-04-25 20:55 | 42.00275 | 34.66825 | 12357 ft | 323 kts | 265° |
| 2026-04-25 20:56 | 42.00124 | 34.63797 | 13130 ft | 326 kts | 265° |
| 2026-04-25 20:56 | 41.99971 | 34.60743 | 13855 ft | 329 kts | 266° |
| 2026-04-25 20:56 | 41.99819 | 34.57652 | 14542 ft | 333 kts | 265° |
| 2026-04-25 20:56 | 41.99662 | 34.54521 | 15215 ft | 338 kts | 265° |
| 2026-04-25 20:57 | 41.99502 | 34.51355 | 15863 ft | 341 kts | 265° |
| 2026-04-25 20:57 | 41.99341 | 34.48153 | 16520 ft | 344 kts | 265° |
| 2026-04-25 20:57 | 41.99195 | 34.44932 | 17152 ft | 348 kts | 266° |
| 2026-04-25 20:57 | 41.99087 | 34.41667 | 17784 ft | 351 kts | 267° |
| 2026-04-25 20:58 | 41.98999 | 34.38372 | 18388 ft | 354 kts | 268° |
| 2026-04-25 20:58 | 41.98918 | 34.35040 | 18990 ft | 358 kts | 268° |
| 2026-04-25 20:58 | 41.98833 | 34.31690 | 19574 ft | 361 kts | 268° |
| 2026-04-25 20:58 | 41.98742 | 34.28309 | 20156 ft | 364 kts | 268° |
| 2026-04-25 20:59 | 41.98646 | 34.24888 | 20731 ft | 367 kts | 267° |
| 2026-04-25 20:59 | 41.98542 | 34.21449 | 21277 ft | 370 kts | 267° |
| 2026-04-25 20:59 | 41.98439 | 34.17987 | 21810 ft | 372 kts | 267° |
| 2026-04-25 20:59 | 41.98333 | 34.14496 | 22335 ft | 375 kts | 267° |
| 2026-04-25 21:00 | 41.98226 | 34.10974 | 22852 ft | 378 kts | 267° |
| 2026-04-25 21:00 | 41.98190 | 34.09780 | 23026 ft | 379 kts | 268° |
| 2026-04-25 21:00 | 41.97898 | 34.00266 | 24316 ft | 387 kts | 267° |
| 2026-04-25 21:01 | 41.97781 | 33.96632 | 24763 ft | 391 kts | 267° |
| 2026-04-25 21:01 | 41.97662 | 33.92969 | 25209 ft | 393 kts | 266° |
| 2026-04-25 21:01 | 41.97543 | 33.89294 | 25665 ft | 395 kts | 266° |
| 2026-04-25 21:01 | 41.97420 | 33.85594 | 26100 ft | 398 kts | 266° |
| 2026-04-25 21:02 | 41.97295 | 33.81873 | 26522 ft | 400 kts | 266° |
| 2026-04-25 21:02 | 41.97169 | 33.78129 | 26947 ft | 402 kts | 266° |
| 2026-04-25 21:02 | 41.97039 | 33.74368 | 27348 ft | 404 kts | 266° |
| 2026-04-25 21:02 | 41.96908 | 33.70584 | 27746 ft | 407 kts | 266° |
| 2026-04-25 21:03 | 41.96776 | 33.66733 | 28160 ft | 409 kts | 266° |
| 2026-04-25 21:03 | 41.96646 | 33.62954 | 28563 ft | 411 kts | 266° |
| 2026-04-25 21:03 | 41.96512 | 33.59066 | 28960 ft | 413 kts | 266° |
| 2026-04-25 21:03 | 41.96376 | 33.55203 | 29335 ft | 415 kts | 266° |
| 2026-04-25 21:04 | 41.96237 | 33.51312 | 29700 ft | 417 kts | 266° |
| 2026-04-25 21:04 | 41.96099 | 33.47423 | 30052 ft | 419 kts | 266° |
| 2026-04-25 21:04 | 41.95958 | 33.43503 | 30393 ft | 421 kts | 266° |
| 2026-04-25 21:04 | 41.95812 | 33.39567 | 30727 ft | 423 kts | 266° |
| 2026-04-25 21:05 | 41.95665 | 33.35606 | 31043 ft | 425 kts | 266° |
| 2026-04-25 21:05 | 41.95515 | 33.31625 | 31340 ft | 428 kts | 266° |
| 2026-04-25 21:05 | 41.95365 | 33.27618 | 31642 ft | 430 kts | 266° |
| 2026-04-25 21:05 | 41.95215 | 33.23609 | 32019 ft | 430 kts | 266° |
| 2026-04-25 21:06 | 41.95063 | 33.19604 | 32434 ft | 429 kts | 266° |
| 2026-04-25 21:06 | 41.94908 | 33.15598 | 32845 ft | 428 kts | 266° |
| 2026-04-25 21:06 | 41.94750 | 33.11615 | 33234 ft | 428 kts | 266° |
| 2026-04-25 21:06 | 41.94645 | 33.08974 | 33477 ft | 428 kts | 266° |
| 2026-04-25 21:07 | 41.94429 | 33.03639 | 33963 ft | 427 kts | 266° |
| 2026-04-25 21:07 | 41.94267 | 32.99668 | 34332 ft | 426 kts | 266° |
| 2026-04-25 21:07 | 41.94107 | 32.95687 | 34687 ft | 426 kts | 267° |
| 2026-04-25 21:07 | 41.93948 | 32.91714 | 35032 ft | 426 kts | 266° |
| 2026-04-25 21:08 | 41.93783 | 32.87745 | 35328 ft | 426 kts | 266° |
| 2026-04-25 21:08 | 41.93616 | 32.83767 | 35578 ft | 426 kts | 267° |
| 2026-04-25 21:08 | 41.93450 | 32.79803 | 35828 ft | 426 kts | 267° |
| 2026-04-25 21:08 | 41.93279 | 32.75830 | 36021 ft | 427 kts | 266° |
| 2026-04-25 21:09 | 41.92933 | 32.67911 | 36073 ft | 423 kts | 267° |
| 2026-04-25 21:09 | 41.92594 | 32.60025 | 36074 ft | 423 kts | 267° |
| 2026-04-25 21:10 | 41.92247 | 32.52131 | 36073 ft | 423 kts | 267° |
| 2026-04-25 21:10 | 41.91894 | 32.44185 | 36072 ft | 424 kts | 267° |
| 2026-04-25 21:11 | 41.91530 | 32.36284 | 36070 ft | 424 kts | 267° |
| 2026-04-25 21:11 | 41.91156 | 32.28404 | 36066 ft | 423 kts | 267° |
| 2026-04-25 21:12 | 41.90285 | 32.20601 | 36060 ft | 424 kts | 255° |
| 2026-04-25 21:12 | 41.89241 | 32.15486 | 36061 ft | 425 kts | 256° |
| 2026-04-25 21:13 | 41.87165 | 32.05303 | 36061 ft | 425 kts | 256° |
| 2026-04-25 21:13 | 41.85596 | 31.97655 | 36056 ft | 425 kts | 256° |
| 2026-04-25 21:14 | 41.84019 | 31.89999 | 36045 ft | 425 kts | 255° |
| 2026-04-25 21:14 | 41.82427 | 31.82329 | 35787 ft | 427 kts | 255° |
| 2026-04-25 21:15 | 41.81626 | 31.78492 | 35569 ft | 426 kts | 255° |
| 2026-04-25 21:15 | 41.80834 | 31.74697 | 35229 ft | 422 kts | 255° |
| 2026-04-25 21:15 | 41.80100 | 31.71180 | 34828 ft | 422 kts | 255° |
| 2026-04-25 21:15 | 41.79306 | 31.67369 | 34577 ft | 427 kts | 255° |
| 2026-04-25 21:16 | 41.78501 | 31.63526 | 34290 ft | 429 kts | 255° |
| 2026-04-25 21:16 | 41.77954 | 31.60932 | 34110 ft | 429 kts | 255° |
| 2026-04-25 21:16 | 41.77142 | 31.57080 | 33834 ft | 430 kts | 255° |
| 2026-04-25 21:16 | 41.76327 | 31.53228 | 33559 ft | 431 kts | 255° |
| 2026-04-25 21:17 | 41.75510 | 31.49368 | 33280 ft | 431 kts | 255° |
| 2026-04-25 21:17 | 41.74694 | 31.45504 | 33005 ft | 431 kts | 255° |
| 2026-04-25 21:17 | 41.73879 | 31.41641 | 32716 ft | 432 kts | 255° |
| 2026-04-25 21:17 | 41.73061 | 31.37769 | 32453 ft | 432 kts | 255° |
| 2026-04-25 21:18 | 41.72241 | 31.33900 | 32179 ft | 433 kts | 255° |
| 2026-04-25 21:18 | 41.71417 | 31.30017 | 31900 ft | 433 kts | 255° |
| 2026-04-25 21:18 | 41.70591 | 31.26142 | 31627 ft | 434 kts | 255° |
| 2026-04-25 21:18 | 41.69757 | 31.22253 | 31356 ft | 434 kts | 255° |
| 2026-04-25 21:19 | 41.68919 | 31.18371 | 31079 ft | 435 kts | 255° |
| 2026-04-25 21:19 | 41.68084 | 31.14493 | 30806 ft | 433 kts | 255° |
| 2026-04-25 21:19 | 41.67275 | 31.10623 | 30522 ft | 431 kts | 256° |
| 2026-04-25 21:19 | 41.66524 | 31.06755 | 30245 ft | 429 kts | 256° |
| 2026-04-25 21:20 | 41.65800 | 31.02881 | 29974 ft | 428 kts | 257° |
| 2026-04-25 21:20 | 41.65333 | 31.00326 | 29791 ft | 427 kts | 257° |
| 2026-04-25 21:20 | 41.64400 | 30.95184 | 29423 ft | 425 kts | 257° |
| 2026-04-25 21:20 | 41.63694 | 30.91359 | 29149 ft | 424 kts | 257° |
| 2026-04-25 21:21 | 41.62978 | 30.87541 | 28872 ft | 422 kts | 256° |
| 2026-04-25 21:21 | 41.62255 | 30.83745 | 28597 ft | 420 kts | 256° |
| 2026-04-25 21:21 | 41.61529 | 30.79977 | 28326 ft | 419 kts | 256° |
| 2026-04-25 21:21 | 41.60798 | 30.76215 | 28075 ft | 418 kts | 256° |
| 2026-04-25 21:22 | 41.60070 | 30.72459 | 27825 ft | 417 kts | 256° |
| 2026-04-25 21:22 | 41.59425 | 30.68689 | 27572 ft | 415 kts | 262° |
| 2026-04-25 21:22 | 41.59054 | 30.64825 | 27317 ft | 414 kts | 259° |
| 2026-04-25 21:22 | 41.58009 | 30.61274 | 27063 ft | 414 kts | 241° |
| 2026-04-25 21:23 | 41.56555 | 30.57964 | 26818 ft | 413 kts | 240° |
| 2026-04-25 21:23 | 41.55125 | 30.54641 | 26567 ft | 411 kts | 242° |
| 2026-04-25 21:23 | 41.53736 | 30.51308 | 26309 ft | 410 kts | 242° |
| 2026-04-25 21:23 | 41.52373 | 30.47968 | 26068 ft | 409 kts | 243° |
| 2026-04-25 21:24 | 41.51036 | 30.44643 | 25824 ft | 407 kts | 243° |
| 2026-04-25 21:24 | 41.49700 | 30.41314 | 25569 ft | 406 kts | 243° |
| 2026-04-25 21:24 | 41.48366 | 30.38006 | 25313 ft | 404 kts | 243° |
| 2026-04-25 21:24 | 41.47029 | 30.34715 | 25061 ft | 403 kts | 242° |
| 2026-04-25 21:25 | 41.45693 | 30.31442 | 24812 ft | 401 kts | 242° |
| 2026-04-25 21:25 | 41.44359 | 30.28185 | 24561 ft | 400 kts | 242° |
| 2026-04-25 21:25 | 41.43023 | 30.24940 | 24312 ft | 399 kts | 242° |
| 2026-04-25 21:25 | 41.41688 | 30.21701 | 24061 ft | 397 kts | 242° |
| 2026-04-25 21:26 | 41.40476 | 30.18755 | 23833 ft | 396 kts | 242° |
| 2026-04-25 21:26 | 41.39160 | 30.15545 | 23582 ft | 394 kts | 242° |
| 2026-04-25 21:26 | 41.37857 | 30.12374 | 23218 ft | 388 kts | 242° |
| 2026-04-25 21:26 | 41.36567 | 30.09242 | 22781 ft | 385 kts | 242° |
| 2026-04-25 21:27 | 41.35286 | 30.06126 | 22335 ft | 381 kts | 242° |
| 2026-04-25 21:27 | 41.34017 | 30.03044 | 21884 ft | 378 kts | 242° |
| 2026-04-25 21:27 | 41.32759 | 29.99996 | 21430 ft | 374 kts | 242° |
| 2026-04-25 21:27 | 41.31611 | 29.97214 | 21011 ft | 371 kts | 242° |
| 2026-04-25 21:28 | 41.30378 | 29.94231 | 20567 ft | 367 kts | 242° |
| 2026-04-25 21:28 | 41.29265 | 29.91548 | 20135 ft | 363 kts | 242° |
| 2026-04-25 21:28 | 41.28051 | 29.88626 | 19670 ft | 360 kts | 242° |
| 2026-04-25 21:28 | 41.26842 | 29.85722 | 19198 ft | 357 kts | 242° |
| 2026-04-25 21:29 | 41.25647 | 29.82851 | 18726 ft | 354 kts | 242° |
| 2026-04-25 21:29 | 41.24444 | 29.79957 | 18241 ft | 351 kts | 242° |
| 2026-04-25 21:29 | 41.23266 | 29.77128 | 17760 ft | 348 kts | 241° |
| 2026-04-25 21:29 | 41.22100 | 29.74326 | 17285 ft | 346 kts | 242° |
| 2026-04-25 21:30 | 41.20941 | 29.71542 | 16817 ft | 343 kts | 242° |
| 2026-04-25 21:30 | 41.19791 | 29.68783 | 16350 ft | 340 kts | 242° |
| 2026-04-25 21:30 | 41.18681 | 29.66122 | 15892 ft | 337 kts | 241° |
| 2026-04-25 21:30 | 41.17927 | 29.64317 | 15590 ft | 336 kts | 241° |
| 2026-04-25 21:31 | 41.16416 | 29.60703 | 14966 ft | 333 kts | 242° |
| 2026-04-25 21:31 | 41.15313 | 29.58066 | 14506 ft | 331 kts | 241° |
| 2026-04-25 21:31 | 41.14180 | 29.55363 | 14043 ft | 328 kts | 241° |
| 2026-04-25 21:31 | 41.13074 | 29.52728 | 13587 ft | 326 kts | 241° |
| 2026-04-25 21:32 | 41.12023 | 29.50230 | 13152 ft | 323 kts | 241° |
| 2026-04-25 21:32 | 41.10934 | 29.47640 | 12699 ft | 321 kts | 241° |
| 2026-04-25 21:32 | 41.09852 | 29.45064 | 12246 ft | 318 kts | 241° |
| 2026-04-25 21:32 | 41.08778 | 29.42512 | 11802 ft | 316 kts | 241° |
| 2026-04-25 21:33 | 41.07712 | 29.39984 | 11359 ft | 314 kts | 241° |
| 2026-04-25 21:33 | 41.06652 | 29.37473 | 10918 ft | 312 kts | 241° |
| 2026-04-25 21:33 | 41.05595 | 29.34974 | 10485 ft | 309 kts | 241° |
| 2026-04-25 21:33 | 41.04558 | 29.32529 | 10308 ft | 299 kts | 241° |
| 2026-04-25 21:34 | 41.03557 | 29.30165 | 10083 ft | 291 kts | 241° |
| 2026-04-25 21:34 | 41.02572 | 29.27840 | 9874 ft | 288 kts | 241° |
| 2026-04-25 21:34 | 41.01596 | 29.25540 | 9758 ft | 287 kts | 241° |
| 2026-04-25 21:34 | 41.00618 | 29.23231 | 9450 ft | 288 kts | 241° |
| 2026-04-25 21:35 | 40.99634 | 29.20907 | 8965 ft | 289 kts | 240° |
| 2026-04-25 21:35 | 40.98660 | 29.18611 | 8466 ft | 284 kts | 240° |
| 2026-04-25 21:35 | 40.97726 | 29.16410 | 7997 ft | 281 kts | 240° |
| 2026-04-25 21:35 | 40.96765 | 29.14152 | 7504 ft | 283 kts | 240° |
| 2026-04-25 21:36 | 40.95920 | 29.12169 | 7080 ft | 280 kts | 240° |
| 2026-04-25 21:36 | 40.94970 | 29.09944 | 6597 ft | 277 kts | 240° |
| 2026-04-25 21:36 | 40.94032 | 29.07731 | 6118 ft | 275 kts | 241° |
| 2026-04-25 21:36 | 40.93121 | 29.05583 | 5889 ft | 268 kts | 241° |
| 2026-04-25 21:37 | 40.92219 | 29.03466 | 5761 ft | 261 kts | 240° |
| 2026-04-25 21:37 | 40.91756 | 29.02303 | 5691 ft | 255 kts | 247° |
| 2026-04-25 21:37 | 40.91318 | 28.99317 | 5475 ft | 244 kts | 272° |
| 2026-04-25 21:37 | 40.91492 | 28.97144 | 5192 ft | 241 kts | 277° |
| 2026-04-25 21:38 | 40.91691 | 28.94953 | 4870 ft | 241 kts | 277° |
| 2026-04-25 21:38 | 40.91875 | 28.92828 | 4550 ft | 241 kts | 277° |
| 2026-04-25 21:38 | 40.92068 | 28.90575 | 4207 ft | 241 kts | 277° |
| 2026-04-25 21:38 | 40.92258 | 28.88392 | 4010 ft | 238 kts | 277° |
| 2026-04-25 21:39 | 40.92445 | 28.86232 | 4005 ft | 237 kts | 276° |
| 2026-04-25 21:39 | 40.92632 | 28.84059 | 4009 ft | 238 kts | 276° |
| 2026-04-25 21:39 | 40.92848 | 28.81907 | 4003 ft | 237 kts | 283° |
| 2026-04-25 21:39 | 40.93494 | 28.79906 | 4005 ft | 237 kts | 304° |
| 2026-04-25 21:40 | 40.94631 | 28.78345 | 4010 ft | 237 kts | 325° |
| 2026-04-25 21:40 | 40.96043 | 28.77212 | 4005 ft | 237 kts | 330° |
| 2026-04-25 21:40 | 40.97498 | 28.76338 | 4005 ft | 223 kts | 348° |
| 2026-04-25 21:40 | 40.99025 | 28.76159 | 4008 ft | 219 kts | 360° |
| 2026-04-25 21:41 | 41.00546 | 28.76143 | 4007 ft | 218 kts | 0° |
| 2026-04-25 21:41 | 41.02059 | 28.76124 | 4009 ft | 213 kts | 360° |
| 2026-04-25 21:41 | 41.03486 | 28.76097 | 4007 ft | 201 kts | 0° |
| 2026-04-25 21:41 | 41.04877 | 28.76072 | 4006 ft | 199 kts | 0° |
| 2026-04-25 21:42 | 41.06252 | 28.76047 | 4005 ft | 198 kts | 360° |
| 2026-04-25 21:42 | 41.07632 | 28.76021 | 3880 ft | 198 kts | 0° |
| 2026-04-25 21:42 | 41.09005 | 28.75994 | 3652 ft | 195 kts | 360° |
| 2026-04-25 21:42 | 41.10366 | 28.75969 | 3401 ft | 196 kts | 0° |
| 2026-04-25 21:43 | 41.11725 | 28.75943 | 3145 ft | 195 kts | 0° |
| 2026-04-25 21:43 | 41.13080 | 28.75918 | 2884 ft | 194 kts | 0° |
| 2026-04-25 21:43 | 41.14434 | 28.75894 | 2627 ft | 195 kts | 0° |
| 2026-04-25 21:43 | 41.15763 | 28.75869 | 2408 ft | 186 kts | 0° |
| 2026-04-25 21:44 | 41.17038 | 28.75844 | 2125 ft | 174 kts | 360° |
| 2026-04-25 21:44 | 41.18185 | 28.75823 | 1907 ft | 159 kts | 360° |
| 2026-04-25 21:44 | 41.20243 | 28.75784 | 1516 ft | 141 kts | 359° |
| 2026-04-25 21:45 | 41.21218 | 28.75763 | 1336 ft | 139 kts | 358° |
| 2026-04-25 21:45 | 41.21530 | 28.75756 | 1273 ft | 139 kts | 356° |
| 2026-04-25 21:45 | 41.23139 | 28.75730 | 957 ft | 138 kts | 359° |
| 2026-04-25 21:45 | 41.24089 | 28.75713 | 794 ft | 137 kts | 359° |
| 2026-04-25 21:46 | 41.25032 | 28.75687 | 595 ft | 135 kts | 359° |
| 2026-04-25 21:46 | 41.25975 | 28.75675 | 413 ft | 134 kts | 359° |
| 2026-04-25 21:46 | 41.26881 | 28.75664 | 304 ft | 122 kts | 0° |
| 2026-04-25 21:46 | 41.27565 | 28.75648 | 291 ft | 73 kts | 359° |
| 2026-04-25 21:47 | 41.27930 | 28.75639 | 272 ft | 39 kts | 355° |
| 2026-04-25 21:47 | 41.28098 | 28.75547 | 268 ft | 14 kts | 330° |
| 2026-04-25 21:47 | 41.28170 | 28.75464 | 265 ft | 14 kts | 292° |
| 2026-04-25 21:47 | 41.28149 | 28.75375 | 266 ft | 10 kts | 226° |
| 2026-04-25 21:48 | 41.28110 | 28.75352 | 268 ft | 9 kts | 181° |
| 2026-04-25 21:48 | 41.28029 | 28.75354 | 272 ft | 8 kts | 179° |
| 2026-04-25 21:48 | 41.27993 | 28.75354 | 273 ft | 8 kts | 179° |
| 2026-04-25 21:48 | 41.27946 | 28.75354 | 276 ft | 7 kts | 180° |
| 2026-04-25 21:49 | 41.27900 | 28.75356 | 278 ft | 7 kts | 178° |
| 2026-04-25 21:49 | 41.27847 | 28.75357 | 285 ft | 9 kts | 179° |
| 2026-04-25 21:49 | 41.27784 | 28.75359 | 284 ft | 9 kts | 180° |
| 2026-04-25 21:49 | 41.27726 | 28.75359 | 287 ft | 8 kts | 180° |
| 2026-04-25 21:50 | 41.27672 | 28.75360 | 289 ft | 8 kts | 179° |
| 2026-04-25 21:50 | 41.27614 | 28.75361 | 294 ft | 10 kts | 179° |
| 2026-04-25 21:50 | 41.27535 | 28.75362 | 295 ft | 12 kts | 180° |
| 2026-04-25 21:50 | 41.27453 | 28.75362 | 299 ft | 12 kts | 180° |
| 2026-04-25 21:51 | 41.27370 | 28.75364 | 301 ft | 12 kts | 178° |
| 2026-04-25 21:51 | 41.27285 | 28.75366 | 303 ft | 12 kts | 179° |
| 2026-04-25 21:51 | 41.27200 | 28.75367 | 305 ft | 11 kts | 179° |
| 2026-04-25 21:51 | 41.27122 | 28.75367 | 304 ft | 12 kts | 179° |
| 2026-04-25 21:52 | 41.27038 | 28.75369 | 306 ft | 13 kts | 179° |
| 2026-04-25 21:52 | 41.26951 | 28.75370 | 307 ft | 12 kts | 179° |
| 2026-04-25 21:52 | 41.26869 | 28.75371 | 308 ft | 12 kts | 178° |
| 2026-04-25 21:52 | 41.26785 | 28.75373 | 311 ft | 12 kts | 179° |
| 2026-04-25 21:53 | 41.26703 | 28.75374 | 311 ft | 11 kts | 180° |
| 2026-04-25 21:53 | 41.26618 | 28.75375 | 310 ft | 13 kts | 179° |
| 2026-04-25 21:53 | 41.26525 | 28.75377 | 312 ft | 12 kts | 179° |
| 2026-04-25 21:53 | 41.26437 | 28.75378 | 313 ft | 13 kts | 179° |
| 2026-04-25 21:54 | 41.26339 | 28.75379 | 314 ft | 13 kts | 179° |
| 2026-04-25 21:54 | 41.26267 | 28.75374 | 314 ft | 9 kts | 197° |
| 2026-04-25 21:54 | 41.26241 | 28.75311 | 314 ft | 8 kts | 269° |
| 2026-04-25 21:54 | 41.26241 | 28.75239 | 314 ft | 7 kts | 270° |
| 2026-04-25 21:55 | 41.26241 | 28.75171 | 314 ft | 7 kts | 270° |
| 2026-04-25 21:55 | 41.26241 | 28.75105 | 313 ft | 7 kts | 269° |
| 2026-04-25 21:55 | 41.26240 | 28.75042 | 313 ft | 6 kts | 266° |
| 2026-04-25 21:55 | 41.26223 | 28.74998 | 313 ft | 5 kts | 224° |
| 2026-04-25 21:56 | 41.26200 | 28.74971 | 312 ft | 4 kts | 232° |
| 2026-04-25 21:56 | 41.26192 | 28.74944 | 313 ft | 5 kts | 252° |
| 2026-04-25 21:56 | 41.26178 | 28.74890 | 312 ft | 4 kts | 251° |
| 2026-04-25 21:56 | 41.26176 | 28.74881 | 313 ft | 0 kts | 251° |